首页
METAR-TAF:

METAR-TAF

机场 :

楠迪國際機場

楠迪, 斐濟

纬度: 17-45S, 经度: 177-27E, 海拔: 13米

当前天气观测

该预报发布于1小时和7分钟前的13:00 UTC
风速6节,风向东转东南
温度 24°C
湿度 78%
气压 1012 hPa
能见度10公里或以上
少量云层高于3000英尺
散云层高于5000英尺
多云层高于12000英尺

METAR: NFFN 121300Z 11006KT 9999 FEW030 SCT050 BKN120 24/20 Q1012 NOSIG

时间: 03:07 (14:07 UTC)

预报

该预报发布于2小时和56分钟前的11:11 UTC
预报有效从12日的 12点(UTC)到 13日的 12点(UTC)
风速7节,风向东南
能见度10公里或以上
散云层高于2800英尺
多云层高于4800英尺
小阵雨
成为
从 12日的 22点(UTC)到 12日的 24点(UTC)
风速10节,风向西
几率 30% :
短暂存在
从 13日的 00点(UTC)到 13日的 06点(UTC)
能見度: 5000
多云层高于1500英尺
阵雨
成为
从 13日的 04点(UTC)到 13日的 06点(UTC)
风速7节,风向东南

TAF: NFFN 121111Z 1212/1312 14007KT 9999 -SHRA SCT028 BKN048 BECMG 1222/1224 27010KT PROB30 TEMPO 1300/1306 5000 SHRA BKN015 BECMG 1304/1306 13007KT

超过4000个机场的气象观测和天气预报(METAR&TAF报告)。

可查询的气象台以黄色和红色小点在地图上表示。

将鼠标移到小点上方,可查看气象台名称。

然后点击查看天气观测和预报。

如需切换地图:点击带黑十字的绿色按钮放大地图;点击带横线的绿色按钮缩小地图;或者点击绿色箭头查看邻近地区的地图。


METAR-TAF: